Time;durP1;ratioP1;P1;durP2;ratioP2;P2;SDS_P1;SDS_P2;PMS_P1;PMS_P2;Temp;Humidity;BMP_temperature;BMP_pressure;BME280_temperature;BME280_humidity;BME280_pressure;Samples;Min_cycle;Max_cycle;Signal;HPM_P1;HPM_P2
2021/03/26 00:01:10;;;;;;;11.77;8.32;;;5.70;99.90;;;;;;5008293;28;20041;-85
2021/03/26 00:03:40;;;;;;;12.55;8.57;;;5.70;99.90;;;;;;4976603;28;20094;-85
2021/03/26 00:06:17;;;;;;;14.20;9.02;;;5.60;99.90;;;;;;4991614;28;20022;-86
2021/03/26 00:08:43;;;;;;;14.25;8.75;;;5.60;99.90;;;;;;4990626;28;20037;-87
2021/03/26 00:11:10;;;;;;;12.68;8.13;;;5.60;99.90;;;;;;4992184;28;20026;-86
2021/03/26 00:13:37;;;;;;;15.20;9.10;;;5.60;99.90;;;;;;4991959;28;20033;-85
2021/03/26 00:16:03;;;;;;;13.98;9.80;;;5.60;99.90;;;;;;4993170;28;20027;-85
2021/03/26 00:18:29;;;;;;;16.13;11.15;;;5.60;99.90;;;;;;5004973;28;20096;-86
2021/03/26 00:20:55;;;;;;;18.50;11.43;;;5.60;99.90;;;;;;5012711;28;20467;-84
2021/03/26 00:23:21;;;;;;;21.75;15.15;;;5.60;99.90;;;;;;5009116;28;20026;-84
2021/03/26 00:25:47;;;;;;;21.65;14.25;;;5.70;99.90;;;;;;4991639;28;20045;-86
2021/03/26 00:28:13;;;;;;;20.95;15.40;;;5.80;99.90;;;;;;4992366;28;20104;-86
2021/03/26 00:30:39;;;;;;;22.00;15.23;;;5.80;99.90;;;;;;4992420;28;20035;-87
2021/03/26 00:33:07;;;;;;;24.85;18.25;;;5.90;99.90;;;;;;4991983;28;20384;-85
2021/03/26 00:35:33;;;;;;;28.65;19.08;;;6.00;99.90;;;;;;4990602;28;20030;-85
2021/03/26 00:37:59;;;;;;;31.10;19.90;;;6.00;99.90;;;;;;4991930;28;20473;-85
2021/03/26 00:40:25;;;;;;;31.83;22.33;;;6.10;99.90;;;;;;4991568;28;20042;-86
2021/03/26 00:42:51;;;;;;;28.15;19.92;;;6.20;99.90;;;;;;4990705;28;20162;-85
2021/03/26 00:45:22;;;;;;;23.95;17.17;;;6.20;99.90;;;;;;4989859;28;20135;-84
2021/03/26 00:47:48;;;;;;;23.52;16.00;;;6.20;99.90;;;;;;4976872;28;20022;-86
2021/03/26 00:50:25;;;;;;;21.85;15.10;;;6.20;99.90;;;;;;4980884;28;20026;-85
2021/03/26 00:52:51;;;;;;;17.88;13.30;;;6.20;99.90;;;;;;4988414;28;20038;-83
2021/03/26 00:55:19;;;;;;;18.15;13.00;;;6.10;99.90;;;;;;4975711;28;20235;-86
2021/03/26 00:57:45;;;;;;;17.55;12.93;;;6.10;99.90;;;;;;5007750;28;20023;-85
2021/03/26 01:00:16;;;;;;;17.02;11.68;;;6.00;99.90;;;;;;4989286;28;20395;-88
2021/03/26 01:02:41;;;;;;;18.52;11.88;;;5.90;99.90;;;;;;4989353;28;20033;-86
2021/03/26 01:05:09;;;;;;;15.43;11.18;;;5.90;99.90;;;;;;4990532;28;20043;-85
2021/03/26 01:07:35;;;;;;;15.98;11.48;;;5.80;99.90;;;;;;4989518;28;20034;-88
2021/03/26 01:10:01;;;;;;;15.73;11.45;;;5.70;99.90;;;;;;4989413;28;20029;-86
2021/03/26 01:12:27;;;;;;;15.98;11.25;;;5.70;99.90;;;;;;4991150;28;20026;-85
2021/03/26 01:14:52;;;;;;;15.63;11.13;;;5.70;99.90;;;;;;4990562;28;20366;-86
2021/03/26 01:17:18;;;;;;;15.63;10.98;;;5.60;99.90;;;;;;4989596;28;20039;-86
2021/03/26 01:19:44;;;;;;;15.32;10.52;;;5.60;99.90;;;;;;4989155;28;20088;-85
2021/03/26 01:22:12;;;;;;;17.38;10.95;;;5.60;99.90;;;;;;4988861;28;20584;-84
2021/03/26 01:24:37;;;;;;;18.45;12.35;;;5.50;99.90;;;;;;4988450;28;20500;-86
2021/03/26 01:27:03;;;;;;;15.45;11.15;;;5.50;99.90;;;;;;5004162;28;20048;-86
2021/03/26 01:29:29;;;;;;;16.42;11.82;;;5.50;99.90;;;;;;5005862;28;20026;-87
2021/03/26 01:31:55;;;;;;;17.65;11.10;;;5.50;99.90;;;;;;4994914;28;20439;-85
2021/03/26 01:34:23;;;;;;;15.30;10.90;;;5.50;99.90;;;;;;5009240;28;20414;-86
2021/03/26 01:36:49;;;;;;;16.05;11.38;;;5.50;99.90;;;;;;4999902;28;20799;-88
2021/03/26 01:39:15;;;;;;;17.23;11.30;;;5.40;99.90;;;;;;4988399;28;20880;-86
2021/03/26 01:41:44;;;;;;;16.15;11.48;;;5.50;99.90;;;;;;4989472;28;20034;-87
2021/03/26 01:44:11;;;;;;;17.65;11.60;;;5.50;99.90;;;;;;4987703;28;20035;-88
2021/03/26 01:46:38;;;;;;;18.95;11.35;;;5.50;99.90;;;;;;4984727;28;20522;-89
2021/03/26 01:49:05;;;;;;;16.42;10.75;;;5.60;99.90;;;;;;4993046;28;20023;-87
2021/03/26 01:51:38;;;;;;;18.58;11.77;;;5.60;99.90;;;;;;4977941;28;20030;-88
2021/03/26 01:54:06;;;;;;;16.90;10.95;;;5.70;99.90;;;;;;5012940;28;20026;-86
2021/03/26 01:56:32;;;;;;;17.23;11.30;;;5.70;99.90;;;;;;5002246;28;20033;-86
2021/03/26 01:58:59;;;;;;;17.95;11.30;;;5.70;99.90;;;;;;4993517;28;20026;-85
2021/03/26 02:01:28;;;;;;;16.23;11.15;;;5.70;99.90;;;;;;5008191;28;20034;-86
2021/03/26 02:03:58;;;;;;;17.23;11.77;;;5.80;99.90;;;;;;4998727;28;20049;-85
2021/03/26 02:06:32;;;;;;;16.73;11.68;;;5.80;99.90;;;;;;4998687;28;20019;-85
2021/03/26 02:09:18;;;;;;;14.85;11.05;;;5.80;99.90;;;;;;4994419;28;20035;-85
2021/03/26 02:11:51;;;;;;;15.68;11.52;;;5.80;99.90;;;;;;4995575;28;20453;-86
2021/03/26 02:14:19;;;;;;;;;;;5.70;99.90;;;;;;4993272;28;20274;-87
2021/03/26 02:16:46;;;;;;;14.57;10.05;;;5.60;99.90;;;;;;4995972;28;19905;-86
2021/03/26 02:19:31;;;;;;;18.77;11.85;;;5.60;99.90;;;;;;4995657;28;20054;-85
2021/03/26 02:21:57;;;;;;;16.13;11.98;;;5.60;99.90;;;;;;4993354;28;20053;-85
2021/03/26 02:24:26;;;;;;;16.48;11.05;;;5.60;99.90;;;;;;4996212;28;20485;-85
2021/03/26 02:26:55;;;;;;;17.02;11.27;;;5.60;99.90;;;;;;4994504;28;20038;-87
2021/03/26 02:29:28;;;;;;;14.13;10.82;;;5.50;99.90;;;;;;4996102;28;20108;-87
2021/03/26 02:32:19;;;;;;;15.80;11.15;;;5.50;99.90;;;;;;4994979;28;20469;-86
2021/03/26 02:35:06;;;;;;;16.33;11.23;;;5.50;99.90;;;;;;4992086;28;20606;-88
2021/03/26 02:37:32;;;;;;;15.88;10.82;;;5.40;99.90;;;;;;4995988;28;20373;-86
2021/03/26 02:39:58;;;;;;;15.75;10.82;;;5.30;99.90;;;;;;4995692;28;20037;-87
2021/03/26 02:42:28;;;;;;;16.08;10.93;;;5.30;99.90;;;;;;4996599;28;20026;-87
2021/03/26 02:45:17;;;;;;;16.30;11.05;;;5.30;99.90;;;;;;4995460;28;20563;-89
2021/03/26 02:47:54;;;;;;;16.77;11.27;;;5.30;99.90;;;;;;4995065;28;20031;-88
2021/03/26 02:50:48;;;;;;;19.67;11.55;;;5.30;99.90;;;;;;4996445;28;20065;-85
2021/03/26 02:53:48;;;;;;;21.60;12.95;;;5.20;99.90;;;;;;4994453;28;20117;-86
2021/03/26 02:56:24;;;;;;;20.83;13.38;;;5.30;99.90;;;;;;4981612;28;20105;-87
2021/03/26 02:58:56;;;;;;;19.48;12.25;;;5.40;99.90;;;;;;4995873;28;20543;-86
2021/03/26 03:01:37;;;;;;;16.77;12.18;;;5.40;99.90;;;;;;4994695;28;20027;-87
2021/03/26 03:04:10;;;;;;;18.70;12.90;;;5.40;99.90;;;;;;4994792;28;20378;-87
2021/03/26 03:06:48;;;;;;;16.58;11.52;;;5.40;99.90;;;;;;4994695;28;20496;-87
2021/03/26 03:09:15;;;;;;;16.33;10.93;;;5.50;99.90;;;;;;4994774;28;20030;-88
2021/03/26 03:11:53;;;;;;;18.30;12.35;;;5.50;99.90;;;;;;4994627;28;20117;-87
2021/03/26 03:14:27;;;;;;;18.23;12.68;;;5.60;99.90;;;;;;4995978;28;20026;-87
2021/03/26 03:17:17;;;;;;;21.33;13.77;;;5.50;99.90;;;;;;4994846;28;20026;-88
2021/03/26 03:20:01;;;;;;;17.55;12.18;;;5.50;99.90;;;;;;4994864;28;20029;-88
2021/03/26 03:22:33;;;;;;;19.35;12.23;;;5.50;99.90;;;;;;4996037;28;20026;-88
2021/03/26 03:25:11;;;;;;;17.10;12.32;;;5.50;99.90;;;;;;4994578;28;20048;-87
2021/03/26 03:27:49;;;;;;;19.75;13.52;;;5.50;99.90;;;;;;4994064;28;20074;-87
2021/03/26 03:30:37;;;;;;;18.50;12.75;;;5.50;99.90;;;;;;4995551;28;20031;-87
2021/03/26 03:33:25;;;;;;;25.63;16.67;;;5.70;99.90;;;;;;4995573;28;20097;-86
2021/03/26 03:36:04;;;;;;;30.88;19.92;;;5.90;99.90;;;;;;4994644;28;20041;-88
2021/03/26 03:39:03;;;;;;;35.03;22.60;;;6.10;99.90;;;;;;4996788;28;20041;-86
2021/03/26 03:42:18;;;;;;;29.58;19.60;;;6.40;99.90;;;;;;4995364;28;20030;-88
2021/03/26 03:44:47;;;;;;;;;;;6.50;99.90;;;;;;4994635;28;20404;-88
2021/03/26 03:47:26;;;;;;;31.15;21.40;;;6.60;99.90;;;;;;4995420;28;19906;-87
2021/03/26 03:49:56;;;;;;;31.65;21.67;;;6.70;99.90;;;;;;4994484;28;20026;-87
2021/03/26 03:52:37;;;;;;;27.55;19.38;;;6.80;99.90;;;;;;4995585;28;20081;-87
2021/03/26 03:55:09;;;;;;;31.92;21.33;;;6.90;99.90;;;;;;4994179;28;20485;-87
2021/03/26 03:57:48;;;;;;;31.63;21.07;;;7.00;99.90;;;;;;4995067;28;20019;-87
2021/03/26 04:00:31;;;;;;;30.40;20.45;;;7.00;99.90;;;;;;4994205;28;20033;-87
2021/03/26 04:03:12;;;;;;;34.65;24.70;;;7.10;99.90;;;;;;4994102;28;20026;-88
2021/03/26 04:05:44;;;;;;;38.78;25.88;;;7.20;99.90;;;;;;4989226;28;20049;-88
2021/03/26 04:08:36;;;;;;;39.83;26.88;;;7.20;99.90;;;;;;4995130;28;20037;-88
2021/03/26 04:11:17;;;;;;;42.67;28.63;;;7.30;99.90;;;;;;4994868;28;20050;-88
2021/03/26 04:13:50;;;;;;;44.55;30.20;;;7.30;99.90;;;;;;4992968;28;20022;-87
2021/03/26 04:16:21;;;;;;;39.95;26.95;;;7.30;99.90;;;;;;4993427;28;20118;-86
2021/03/26 04:18:54;;;;;;;39.78;27.25;;;7.30;99.90;;;;;;4994444;28;20053;-88
2021/03/26 04:21:24;;;;;;;;;;;7.40;99.90;;;;;;4994021;28;20054;-86
2021/03/26 04:23:58;;;;;;;37.40;25.33;;;7.40;99.90;;;;;;4993284;28;19921;-86
2021/03/26 04:26:55;;;;;;;41.42;27.92;;;7.40;99.90;;;;;;4994542;28;20030;-87
2021/03/26 04:29:38;;;;;;;43.63;29.35;;;7.50;99.90;;;;;;4992718;28;20034;-87
2021/03/26 04:32:08;;;;;;;43.22;29.23;;;7.50;99.90;;;;;;4993330;28;20034;-87
2021/03/26 04:34:36;;;;;;;42.30;28.52;;;7.50;99.90;;;;;;4993048;28;20503;-89
2021/03/26 04:37:12;;;;;;;43.63;29.75;;;7.60;99.90;;;;;;4993247;28;20057;-87
2021/03/26 04:40:28;;;;;;;36.22;24.42;;;7.60;99.90;;;;;;4994453;28;20034;-86
2021/03/26 04:43:04;;;;;;;39.08;26.92;;;7.60;99.90;;;;;;4992298;28;20413;-87
2021/03/26 04:45:41;;;;;;;37.90;26.75;;;7.60;99.90;;;;;;4994360;28;20125;-87
2021/03/26 04:48:19;;;;;;;36.83;24.55;;;7.70;99.90;;;;;;4994537;28;20019;-87
2021/03/26 04:51:08;;;;;;;36.78;25.27;;;7.70;99.90;;;;;;4994748;28;20121;-87
2021/03/26 04:53:58;;;;;;;48.08;30.38;;;7.70;99.90;;;;;;4994990;28;20030;-87
2021/03/26 04:56:28;;;;;;;40.78;27.92;;;7.70;99.90;;;;;;4994852;28;20540;-88
2021/03/26 04:58:58;;;;;;;46.35;31.90;;;7.80;99.90;;;;;;4994366;28;20050;-88
2021/03/26 05:01:26;;;;;;;41.58;28.13;;;7.80;99.90;;;;;;4993609;28;20429;-88
2021/03/26 05:04:06;;;;;;;41.17;26.55;;;7.80;99.90;;;;;;4994745;28;20117;-86
2021/03/26 05:06:37;;;;;;;44.95;28.33;;;7.80;99.90;;;;;;4993121;28;20105;-88
2021/03/26 05:09:10;;;;;;;40.20;26.02;;;7.80;99.90;;;;;;4994666;28;20034;-88
2021/03/26 05:11:50;;;;;;;47.53;30.00;;;7.80;99.90;;;;;;4993233;28;20031;-86
2021/03/26 05:14:38;;;;;;;52.08;32.47;;;7.80;99.90;;;;;;4993380;28;20061;-86
2021/03/26 05:17:35;;;;;;;40.20;27.75;;;7.80;99.90;;;;;;4994406;28;20034;-86
2021/03/26 05:20:32;;;;;;;41.38;28.00;;;7.90;99.90;;;;;;4993382;28;20121;-87
2021/03/26 05:23:19;;;;;;;46.90;31.05;;;7.80;99.90;;;;;;4992902;28;20038;-86
2021/03/26 05:25:47;;;;;;;48.80;30.63;;;7.90;99.90;;;;;;4993778;28;20038;-87
2021/03/26 05:28:22;;;;;;;45.03;29.13;;;7.90;99.90;;;;;;4996267;28;20125;-86
2021/03/26 05:30:49;;;;;;;44.95;29.02;;;7.90;99.90;;;;;;4996597;28;20041;-86
2021/03/26 05:33:25;;;;;;;47.78;30.00;;;7.90;99.90;;;;;;4997540;28;20027;-86
2021/03/26 05:36:05;;;;;;;42.78;28.52;;;7.90;99.90;;;;;;4997536;28;20030;-86
2021/03/26 05:39:02;;;;;;;42.17;26.25;;;7.90;99.90;;;;;;4996623;28;20061;-87
2021/03/26 05:41:43;;;;;;;41.30;27.80;;;7.90;99.90;;;;;;4995707;28;20140;-87
2021/03/26 05:44:33;;;;;;;44.67;28.55;;;8.00;99.90;;;;;;4996039;28;20120;-87
2021/03/26 05:47:17;;;;;;;41.33;26.88;;;8.00;99.90;;;;;;4996070;28;20026;-88
2021/03/26 05:49:52;;;;;;;42.00;27.73;;;7.90;99.90;;;;;;4996095;28;20033;-85
2021/03/26 05:52:38;;;;;;;46.88;30.63;;;8.00;99.90;;;;;;4997364;28;20054;-87
2021/03/26 05:55:15;;;;;;;41.78;28.52;;;7.90;99.90;;;;;;4997351;28;20034;-87
2021/03/26 05:58:03;;;;;;;40.50;26.58;;;8.00;99.90;;;;;;4996128;28;20096;-86
2021/03/26 06:01:05;;;;;;;40.75;28.20;;;8.00;99.90;;;;;;4995769;28;20479;-87
2021/03/26 06:04:07;;;;;;;42.13;28.20;;;8.00;99.90;;;;;;4996511;28;20046;-86
2021/03/26 06:07:15;;;;;;;41.45;28.40;;;8.00;99.90;;;;;;4997465;28;20153;-88
2021/03/26 06:10:02;;;;;;;44.83;29.75;;;8.00;99.90;;;;;;4997125;28;20037;-87
2021/03/26 06:12:49;;;;;;;42.35;27.85;;;8.00;99.90;;;;;;4996190;28;20066;-86
2021/03/26 06:15:26;;;;;;;43.05;27.80;;;8.10;99.90;;;;;;4997410;28;20026;-87
2021/03/26 06:18:21;;;;;;;42.50;27.80;;;8.10;99.90;;;;;;4996986;28;20085;-87
2021/03/26 06:21:25;;;;;;;40.03;27.92;;;8.10;99.90;;;;;;4998102;28;20034;-88
2021/03/26 06:24:15;;;;;;;43.60;27.20;;;8.10;99.90;;;;;;4997780;28;20031;-87
2021/03/26 06:27:04;;;;;;;35.05;24.27;;;8.20;99.90;;;;;;4996012;28;20045;-88
2021/03/26 06:29:42;;;;;;;41.72;26.98;;;8.20;99.90;;;;;;4997692;28;20080;-83
2021/03/26 06:32:29;;;;;;;44.85;30.08;;;8.20;99.90;;;;;;4996261;28;20026;-85
2021/03/26 06:35:25;;;;;;;44.83;29.60;;;8.20;99.90;;;;;;4996395;28;20033;-87
2021/03/26 06:38:04;;;;;;;48.33;30.20;;;8.30;99.90;;;;;;4997113;28;20117;-88
2021/03/26 06:40:37;;;;;;;46.78;29.95;;;8.30;99.90;;;;;;4996098;28;20113;-89
2021/03/26 06:43:20;;;;;;;47.88;32.00;;;8.30;99.90;;;;;;4996192;28;20524;-89
2021/03/26 06:46:19;;;;;;;44.72;29.52;;;8.30;99.90;;;;;;4996063;28;20038;-87
2021/03/26 06:48:57;;;;;;;45.38;30.42;;;8.40;99.90;;;;;;4997098;28;20046;-86
2021/03/26 06:51:44;;;;;;;42.38;28.00;;;8.40;99.90;;;;;;4995461;28;20026;-88
2021/03/26 06:54:23;;;;;;;48.97;31.45;;;8.50;99.90;;;;;;4995323;28;20469;-85
2021/03/26 06:57:13;;;;;;;41.47;29.27;;;8.40;99.90;;;;;;4995294;28;20026;-85
2021/03/26 06:59:51;;;;;;;46.13;28.75;;;8.50;99.90;;;;;;4995377;28;20436;-85
2021/03/26 07:02:54;;;;;;;43.72;28.88;;;8.50;99.90;;;;;;4995018;28;20023;-84
2021/03/26 07:05:40;;;;;;;45.58;29.77;;;8.60;99.90;;;;;;4994590;28;20042;-86
2021/03/26 07:08:39;;;;;;;44.00;28.23;;;8.60;99.90;;;;;;4984294;28;20065;-88
2021/03/26 07:11:12;;;;;;;46.45;31.23;;;8.60;99.90;;;;;;4996363;28;20117;-87
2021/03/26 07:13:56;;;;;;;43.38;29.10;;;8.70;99.90;;;;;;4994953;28;20061;-87
2021/03/26 07:16:45;;;;;;;47.53;30.45;;;8.70;99.90;;;;;;4994812;28;20035;-87
2021/03/26 07:19:42;;;;;;;47.00;30.50;;;8.70;99.90;;;;;;4996478;28;20026;-88
2021/03/26 07:22:33;;;;;;;49.10;30.80;;;8.80;99.90;;;;;;4996010;28;20033;-87
2021/03/26 07:25:13;;;;;;;46.53;29.52;;;8.80;99.90;;;;;;4996297;28;20065;-87
2021/03/26 07:28:05;;;;;;;47.50;31.55;;;8.90;99.90;;;;;;4994458;28;20048;-88
2021/03/26 07:31:03;;;;;;;45.53;31.27;;;8.90;99.90;;;;;;4994920;28;20080;-89
2021/03/26 07:33:43;;;;;;;41.50;28.10;;;9.00;99.90;;;;;;4994598;28;20038;-87
2021/03/26 07:36:33;;;;;;;45.60;29.75;;;9.00;99.90;;;;;;4994899;28;20113;-87
2021/03/26 07:39:22;;;;;;;45.50;29.75;;;9.10;99.90;;;;;;4995671;28;20076;-87
2021/03/26 07:42:23;;;;;;;49.42;32.20;;;9.20;99.90;;;;;;4995913;28;20026;-87
2021/03/26 07:45:19;;;;;;;44.53;29.80;;;9.30;99.90;;;;;;4994711;28;20092;-86
2021/03/26 07:48:21;;;;;;;41.95;28.10;;;9.40;99.90;;;;;;4995481;28;20065;-88
2021/03/26 07:50:58;;;;;;;43.95;29.90;;;9.40;99.90;;;;;;4994166;28;20108;-87
2021/03/26 07:53:44;;;;;;;43.13;29.10;;;9.50;99.90;;;;;;4995462;28;20023;-88
2021/03/26 07:56:32;;;;;;;47.05;31.63;;;9.60;99.90;;;;;;4996111;28;20481;-87
2021/03/26 07:59:16;;;;;;;41.47;29.38;;;9.80;99.90;;;;;;4995404;28;20026;-87
2021/03/26 08:01:49;;;;;;;41.15;28.08;;;9.90;99.90;;;;;;4994235;28;20023;-87
2021/03/26 08:04:33;;;;;;;37.25;26.17;;;10.10;99.90;;;;;;4995498;28;20426;-88
2021/03/26 08:07:17;;;;;;;43.60;29.30;;;10.20;99.90;;;;;;4995446;28;20037;-87
2021/03/26 08:09:57;;;;;;;39.88;28.35;;;10.30;99.90;;;;;;4997821;28;20033;-87
2021/03/26 08:12:31;;;;;;;42.92;27.80;;;10.20;99.90;;;;;;4995515;28;20030;-85
2021/03/26 08:15:55;;;;;;;40.30;29.70;;;10.20;99.90;;;;;;4998811;28;20022;-79
2021/03/26 08:18:39;;;;;;;43.92;29.70;;;10.20;99.90;;;;;;4992922;28;20026;-87
2021/03/26 08:21:14;;;;;;;40.42;28.38;;;10.20;99.90;;;;;;4995068;28;20515;-87
2021/03/26 08:24:12;;;;;;;44.72;29.75;;;10.20;99.90;;;;;;4994785;28;20033;-87
2021/03/26 08:26:44;;;;;;;40.40;27.88;;;10.30;99.90;;;;;;5003902;28;20093;-79
2021/03/26 08:29:25;;;;;;;39.15;27.13;;;10.30;99.90;;;;;;4994816;28;20022;-87
2021/03/26 08:32:02;;;;;;;38.22;27.30;;;10.40;99.90;;;;;;4996789;28;20026;-79
2021/03/26 08:34:40;;;;;;;38.92;27.42;;;10.50;99.90;;;;;;4994087;28;20501;-87
2021/03/26 08:37:22;;;;;;;39.50;28.10;;;10.50;99.90;;;;;;4993716;28;20041;-85
2021/03/26 08:39:58;;;;;;;34.58;24.20;;;10.70;99.90;;;;;;4994422;28;20117;-87
2021/03/26 08:42:27;;;;;;;32.75;23.17;;;10.80;99.90;;;;;;4994842;28;20065;-86
2021/03/26 08:45:20;;;;;;;32.72;23.08;;;10.90;99.90;;;;;;4993340;28;20038;-86
2021/03/26 08:48:04;;;;;;;35.65;24.17;;;11.00;99.90;;;;;;4994372;28;20096;-85
2021/03/26 08:51:08;;;;;;;35.45;22.20;;;11.10;99.90;;;;;;4993261;28;20496;-85
2021/03/26 08:54:05;;;;;;;31.58;22.08;;;11.20;99.90;;;;;;4997117;28;20030;-85
2021/03/26 08:56:56;;;;;;;30.05;22.75;;;11.30;99.90;;;;;;4993322;28;20030;-85
2021/03/26 08:59:46;;;;;;;31.55;23.02;;;11.50;99.90;;;;;;5012044;28;20381;-85
2021/03/26 09:02:30;;;;;;;35.10;23.50;;;11.60;99.90;;;;;;4999441;28;20086;-83
2021/03/26 09:05:10;;;;;;;37.40;23.80;;;11.60;99.90;;;;;;4995478;28;20094;-86
2021/03/26 09:11:06;;;;;;;31.27;21.83;;;11.90;99.90;;;;;;4988213;28;20035;-83
2021/03/26 09:14:05;;;;;;;28.63;21.23;;;12.00;99.90;;;;;;4988293;28;20031;-83
2021/03/26 09:16:32;;;;;;;80.30;25.80;;;12.10;99.90;;;;;;4983378;28;20030;-86
2021/03/26 09:19:17;;;;;;;31.75;21.00;;;12.20;99.90;;;;;;4977135;28;20574;-88
2021/03/26 09:22:12;;;;;;;25.13;18.50;;;12.40;99.80;;;;;;4976118;28;20507;-86
2021/03/26 09:25:02;;;;;;;29.60;19.33;;;12.50;99.90;;;;;;4976895;28;20050;-88
2021/03/26 09:27:46;;;;;;;29.25;19.80;;;12.70;99.80;;;;;;4977281;28;20125;-87
2021/03/26 09:30:25;;;;;;;25.63;19.23;;;12.90;99.70;;;;;;4976703;28;20023;-87
2021/03/26 09:33:21;;;;;;;26.08;18.73;;;13.20;98.30;;;;;;4978472;28;20090;-86
2021/03/26 09:35:58;;;;;;;25.80;19.05;;;13.40;97.90;;;;;;4976299;28;20118;-87
2021/03/26 09:38:52;;;;;;;26.48;18.55;;;13.60;97.80;;;;;;4976842;28;20508;-89
2021/03/26 09:41:24;;;;;;;;;;;13.80;97.60;;;;;;4977746;28;20448;-86
2021/03/26 09:43:59;;;;;;;26.10;17.90;;;14.00;96.60;;;;;;4994931;28;19928;-85
2021/03/26 09:47:03;;;;;;;23.42;17.98;;;14.00;96.80;;;;;;4996204;28;20038;-88
2021/03/26 09:49:31;;;;;;;;;;;14.00;96.80;;;;;;4994809;28;20476;-89
2021/03/26 09:52:12;;;;;;;23.27;16.88;;;14.80;95.80;;;;;;5009716;28;20375;-87
2021/03/26 09:54:40;;;;;;;21.33;14.65;;;15.90;94.20;;;;;;4997645;28;20023;-87
2021/03/26 09:57:18;;;;;;;21.08;13.18;;;17.00;91.60;;;;;;4995635;28;20057;-88
2021/03/26 10:00:08;;;;;;;20.70;12.88;;;16.80;90.60;;;;;;4995718;28;20035;-82
2021/03/26 10:02:45;;;;;;;18.67;12.50;;;16.50;91.10;;;;;;4998241;28;20022;-86
2021/03/26 10:05:31;;;;;;;18.98;12.02;;;16.10;90.30;;;;;;4996396;28;20038;-85
2021/03/26 10:08:21;;;;;;;18.15;10.85;;;15.70;90.40;;;;;;4999721;28;20033;-85
2021/03/26 10:10:49;;;;;;;17.50;11.60;;;15.40;90.90;;;;;;5011968;28;20492;-86
2021/03/26 10:13:21;;;;;;;16.80;11.93;;;15.10;91.40;;;;;;5010349;28;20064;-84
2021/03/26 10:16:05;;;;;;;15.88;10.98;;;15.00;92.10;;;;;;5004022;28;20384;-84
2021/03/26 10:18:45;;;;;;;18.90;11.23;;;14.80;90.90;;;;;;4992183;28;20068;-87
2021/03/26 10:21:12;;;;;;;16.85;9.98;;;14.60;91.90;;;;;;4994913;28;20022;-87
2021/03/26 10:23:53;;;;;;;17.20;10.35;;;14.40;92.20;;;;;;4993756;28;20716;-85
2021/03/26 10:26:39;;;;;;;15.23;10.15;;;14.30;92.70;;;;;;4991277;28;20118;-84
2021/03/26 10:29:35;;;;;;;14.70;8.75;;;14.20;92.40;;;;;;4991493;28;20408;-87
2021/03/26 10:32:29;;;;;;;17.42;8.38;;;14.20;93.50;;;;;;4993101;28;20036;-85
2021/03/26 10:34:58;;;;;;;13.07;7.53;;;14.20;92.10;;;;;;4991313;28;20122;-86
2021/03/26 10:37:27;;;;;;;15.98;7.78;;;14.30;93.20;;;;;;4992268;28;20499;-84
2021/03/26 10:40:18;;;;;;;16.98;8.20;;;14.50;92.30;;;;;;4992953;28;20420;-86
2021/03/26 10:42:51;;;;;;;11.35;6.43;;;14.60;92.10;;;;;;4992381;28;20033;-86
2021/03/26 10:45:29;;;;;;;12.80;6.97;;;14.90;92.20;;;;;;4991247;28;20030;-86
2021/03/26 10:48:18;;;;;;;14.65;6.32;;;15.00;91.10;;;;;;4992640;28;20500;-84
2021/03/26 10:50:57;;;;;;;12.13;5.82;;;15.00;91.40;;;;;;4993507;28;20026;-85
2021/03/26 10:53:25;;;;;;;10.75;5.13;;;15.00;90.80;;;;;;4993814;28;20031;-85
2021/03/26 10:56:10;;;;;;;8.60;4.30;;;15.00;91.10;;;;;;4994506;28;20113;-86
2021/03/26 10:58:44;;;;;;;8.88;4.05;;;15.00;90.90;;;;;;4992799;28;20026;-85
2021/03/26 11:01:18;;;;;;;9.55;4.95;;;15.10;91.50;;;;;;4993149;28;20068;-87
2021/03/26 11:03:57;;;;;;;12.30;4.47;;;15.30;90.70;;;;;;4993382;28;20026;-85
2021/03/26 11:06:40;;;;;;;8.73;3.80;;;15.20;90.40;;;;;;4993533;28;20026;-85
2021/03/26 11:09:21;;;;;;;12.55;4.80;;;15.20;91.40;;;;;;4993209;28;20484;-85
2021/03/26 11:12:05;;;;;;;7.32;3.88;;;15.10;90.90;;;;;;4993304;28;20030;-86
2021/03/26 11:14:52;;;;;;;6.85;3.30;;;15.20;90.70;;;;;;4998036;28;20023;-86
2021/03/26 11:17:36;;;;;;;6.68;3.70;;;15.40;90.00;;;;;;4998407;28;20067;-87
2021/03/26 11:20:18;;;;;;;10.00;3.42;;;15.60;89.10;;;;;;5000207;28;20080;-90
2021/03/26 11:23:09;;;;;;;9.32;3.38;;;15.90;87.60;;;;;;4995307;28;20081;-86
2021/03/26 11:25:39;;;;;;;7.32;2.97;;;15.70;86.70;;;;;;4993303;28;20061;-85
2021/03/26 11:28:20;;;;;;;6.20;3.17;;;15.90;88.00;;;;;;4993802;28;20073;-86
2021/03/26 11:31:27;;;;;;;7.10;3.15;;;16.10;86.80;;;;;;4993745;28;20033;-88
2021/03/26 11:34:08;;;;;;;8.93;2.83;;;16.20;85.80;;;;;;4991971;28;20038;-86
2021/03/26 11:36:49;;;;;;;7.80;3.17;;;16.10;87.00;;;;;;4994959;28;20058;-84
2021/03/26 11:39:58;;;;;;;5.65;2.60;;;16.90;85.90;;;;;;4994833;28;20481;-86
2021/03/26 11:42:40;;;;;;;6.65;3.10;;;17.80;83.00;;;;;;4994803;28;20037;-85
2021/03/26 11:45:29;;;;;;;7.20;3.43;;;17.70;80.00;;;;;;4995406;28;20035;-87
2021/03/26 11:48:39;;;;;;;7.10;3.28;;;17.70;81.60;;;;;;4994425;28;20101;-87
2021/03/26 11:51:33;;;;;;;9.73;3.65;;;17.80;79.80;;;;;;4995520;28;20041;-85
2021/03/26 11:54:17;;;;;;;;;;;17.60;81.40;;;;;;4994742;28;20030;-87
2021/03/26 11:57:23;;;;;;;8.52;3.05;;;18.30;82.40;;;;;;4994390;28;19906;-86
2021/03/26 12:00:05;;;;;;;8.38;3.10;;;19.70;77.70;;;;;;4988398;28;20038;-86
2021/03/26 12:02:55;;;;;;;6.90;2.90;;;20.40;73.10;;;;;;4994187;28;20022;-85
2021/03/26 12:05:30;;;;;;;9.30;2.72;;;20.60;70.90;;;;;;4993682;28;20034;-85
2021/03/26 12:08:20;;;;;;;9.40;2.70;;;20.70;68.40;;;;;;4993889;28;20029;-87
2021/03/26 12:11:29;;;;;;;11.15;3.10;;;20.60;69.50;;;;;;4995245;28;20034;-86
2021/03/26 12:14:37;;;;;;;7.07;2.83;;;20.60;67.10;;;;;;4992985;28;20443;-83
2021/03/26 12:17:07;;;;;;;8.70;3.03;;;20.50;68.00;;;;;;4975951;28;20034;-84
2021/03/26 12:19:36;;;;;;;7.55;3.03;;;20.10;67.40;;;;;;4994805;28;20394;-87
2021/03/26 12:22:14;;;;;;;6.28;2.78;;;20.30;68.30;;;;;;4993956;28;20018;-89
2021/03/26 12:24:51;;;;;;;9.07;3.25;;;20.60;65.40;;;;;;4974582;28;20089;-87
2021/03/26 12:27:47;;;;;;;112.28;20.15;;;21.10;66.90;;;;;;4990995;28;20030;-87
2021/03/26 12:30:15;;;;;;;15.82;4.57;;;21.30;63.80;;;;;;4996652;28;20030;-87
2021/03/26 12:32:54;;;;;;;10.38;3.63;;;21.20;64.70;;;;;;4994167;28;20748;-85
2021/03/26 12:35:28;;;;;;;75.45;12.25;;;20.80;61.20;;;;;;4982027;28;20018;-88
2021/03/26 12:38:19;;;;;;;144.65;22.30;;;20.40;63.30;;;;;;4992719;28;20022;-87
2021/03/26 12:40:56;;;;;;;16.95;4.82;;;19.70;65.10;;;;;;4993285;28;20054;-87
2021/03/26 12:43:22;;;;;;;37.67;7.20;;;19.30;66.90;;;;;;4993618;28;20034;-86
2021/03/26 12:46:01;;;;;;;8.23;3.75;;;19.70;67.80;;;;;;4993243;28;20089;-87
2021/03/26 12:48:54;;;;;;;8.68;3.78;;;20.10;68.90;;;;;;4992613;28;20041;-87
2021/03/26 12:51:25;;;;;;;8.52;3.83;;;19.80;66.90;;;;;;4992832;28;20026;-87
2021/03/26 12:54:08;;;;;;;7.50;3.67;;;19.40;64.40;;;;;;4994789;28;20035;-86
2021/03/26 12:56:37;;;;;;;10.45;3.80;;;19.70;66.00;;;;;;4997316;28;20030;-85
2021/03/26 12:59:23;;;;;;;11.23;3.28;;;20.40;64.40;;;;;;4994487;28;20026;-89
2021/03/26 13:01:54;;;;;;;9.15;4.43;;;20.90;62.00;;;;;;4992950;28;20026;-88
2021/03/26 13:04:25;;;;;;;7.20;3.28;;;20.20;61.60;;;;;;4991493;28;20031;-86
2021/03/26 13:06:56;;;;;;;10.80;4.03;;;19.50;65.50;;;;;;4973521;28;20039;-85
2021/03/26 13:09:55;;;;;;;9.60;4.25;;;19.90;66.40;;;;;;4973556;28;20381;-88
2021/03/26 13:12:29;;;;;;;7.05;3.95;;;19.80;62.50;;;;;;4974432;28;20037;-88
2021/03/26 13:15:14;;;;;;;8.80;4.00;;;19.30;66.70;;;;;;4972131;28;20033;-86
2021/03/26 13:17:40;;;;;;;8.57;3.90;;;19.40;66.20;;;;;;4975124;28;20511;-85
2021/03/26 13:20:16;;;;;;;11.68;4.88;;;19.00;67.40;;;;;;4973875;28;20027;-88
2021/03/26 13:22:52;;;;;;;12.70;4.25;;;18.50;66.60;;;;;;4974406;28;20165;-87
2021/03/26 13:25:39;;;;;;;13.60;4.97;;;18.10;68.00;;;;;;4975605;28;20491;-89
2021/03/26 13:28:21;;;;;;;14.80;5.13;;;17.70;67.00;;;;;;4973840;28;20051;-86
2021/03/26 13:31:02;;;;;;;9.65;4.43;;;17.30;70.30;;;;;;4974392;28;20041;-84
2021/03/26 13:33:27;;;;;;;8.75;4.00;;;17.10;72.00;;;;;;5008961;28;20034;-86
2021/03/26 13:36:14;;;;;;;6.78;3.83;;;17.10;74.10;;;;;;5004096;28;20169;-85
2021/03/26 13:38:40;;;;;;;8.38;3.50;;;17.30;71.20;;;;;;5014773;28;20030;-86
2021/03/26 13:41:34;;;;;;;6.88;3.90;;;18.00;70.90;;;;;;4993930;28;20212;-87
2021/03/26 13:44:29;;;;;;;6.70;3.28;;;18.10;69.70;;;;;;4991114;28;20034;-88
2021/03/26 13:47:04;;;;;;;6.68;2.97;;;18.00;69.10;;;;;;4987017;28;20069;-88